Time;durP1;ratioP1;P1;durP2;ratioP2;P2;SDS_P1;SDS_P2;PMS_P1;PMS_P2;Temp;Humidity;BMP_temperature;BMP_pressure;BME280_temperature;BME280_humidity;BME280_pressure;Samples;Min_cycle;Max_cycle;Signal;HPM_P1;HPM_P2
2022/11/08 00:02:30;;;;;;;19.73;9.85;;;15.20;76.10;;;;;;7401609;19;20328;-78
2022/11/08 00:15:48;;;;;;;17.38;7.55;;;15.10;75.90;;;;;;7395800;19;20131;-78
2022/11/08 00:18:17;;;;;;;17.65;7.38;;;15.10;75.90;;;;;;7396649;19;20109;-78
2022/11/08 00:20:46;;;;;;;23.63;8.32;;;15.10;76.10;;;;;;7396104;19;20024;-78
2022/11/08 00:23:15;;;;;;;18.98;7.03;;;15.10;76.10;;;;;;7397968;19;20010;-85
2022/11/08 00:25:54;;;;;;;22.25;6.72;;;15.10;76.10;;;;;;7402902;19;20114;-84
2022/11/08 00:28:24;;;;;;;16.27;6.97;;;15.10;76.00;;;;;;7403295;19;20031;-85
2022/11/08 00:30:54;;;;;;;15.48;6.47;;;15.10;75.80;;;;;;7401172;19;20010;-84
2022/11/08 00:33:25;;;;;;;18.05;6.90;;;15.10;75.70;;;;;;7402929;19;20018;-84
2022/11/08 00:35:53;;;;;;;15.77;6.90;;;15.00;75.70;;;;;;7403566;19;20018;-84
2022/11/08 00:38:22;;;;;;;24.92;7.45;;;15.00;75.70;;;;;;7405971;19;20520;-84
2022/11/08 00:40:53;;;;;;;18.98;5.95;;;15.00;75.80;;;;;;7406996;19;20447;-84
2022/11/08 00:43:22;;;;;;;15.98;6.07;;;15.00;75.80;;;;;;7414789;19;20022;-84
2022/11/08 00:45:51;;;;;;;18.90;6.43;;;15.00;76.00;;;;;;7423198;19;20018;-85
2022/11/08 00:48:20;;;;;;;17.38;6.90;;;15.00;76.00;;;;;;7414964;19;20031;-84
2022/11/08 00:50:48;;;;;;;17.90;5.70;;;15.00;76.00;;;;;;7412135;19;20696;-84
2022/11/08 00:53:17;;;;;;;16.60;6.00;;;15.00;76.00;;;;;;7412000;19;20010;-84
2022/11/08 00:55:46;;;;;;;16.25;6.32;;;14.90;75.90;;;;;;7411395;19;20370;-84
2022/11/08 00:58:17;;;;;;;22.33;7.72;;;14.90;75.90;;;;;;7411234;19;20031;-83
2022/11/08 01:00:46;;;;;;;17.02;7.30;;;14.90;75.90;;;;;;7408814;19;20035;-84
2022/11/08 01:03:21;;;;;;;17.65;6.65;;;14.90;75.80;;;;;;7411600;19;20016;-83
2022/11/08 01:05:50;;;;;;;14.07;5.93;;;14.90;75.90;;;;;;7410658;19;20387;-83
2022/11/08 01:08:20;;;;;;;15.57;6.03;;;14.90;76.70;;;;;;7406166;19;20058;-84
2022/11/08 01:10:51;;;;;;;20.52;6.47;;;14.80;75.80;;;;;;7406230;19;20023;-83
2022/11/08 01:13:23;;;;;;;17.17;6.40;;;14.80;76.00;;;;;;7406031;19;20027;-83
2022/11/08 01:15:51;;;;;;;12.60;6.10;;;14.80;75.90;;;;;;7404526;19;20354;-83
2022/11/08 01:18:20;;;;;;;19.30;5.93;;;14.80;76.00;;;;;;7413914;19;20055;-84
2022/11/08 01:20:51;;;;;;;16.15;6.40;;;14.80;76.10;;;;;;7413237;19;20010;-84
2022/11/08 01:23:21;;;;;;;20.58;6.10;;;14.80;76.10;;;;;;7406313;19;20448;-83
2022/11/08 01:25:50;;;;;;;18.38;5.70;;;14.80;76.00;;;;;;7403268;19;20033;-84
2022/11/08 01:28:21;;;;;;;11.68;5.00;;;14.80;75.90;;;;;;7403699;19;20094;-83
2022/11/08 01:30:50;;;;;;;14.95;4.70;;;14.80;75.80;;;;;;7400506;19;20089;-84
2022/11/08 01:33:19;;;;;;;12.85;4.80;;;14.70;75.70;;;;;;7404271;19;20022;-83
2022/11/08 01:35:47;;;;;;;13.57;4.72;;;14.70;75.60;;;;;;7403832;19;20480;-83
2022/11/08 01:38:17;;;;;;;8.40;4.50;;;14.70;75.50;;;;;;7403711;19;20112;-83
2022/11/08 01:40:48;;;;;;;13.25;5.28;;;14.70;75.50;;;;;;7405690;19;20011;-84
2022/11/08 01:43:42;;;;;;;12.45;5.05;;;14.70;75.50;;;;;;7401036;19;20053;-84
2022/11/08 01:46:33;;;;;;;15.35;4.90;;;14.70;75.50;;;;;;7404940;19;20041;-84
2022/11/08 01:49:19;;;;;;;11.68;4.57;;;14.60;75.30;;;;;;7424329;19;20033;-84
2022/11/08 01:51:51;;;;;;;16.30;4.55;;;14.60;75.30;;;;;;7413063;19;20018;-84
2022/11/08 01:54:23;;;;;;;16.08;4.93;;;14.60;75.20;;;;;;7409946;19;20038;-84
2022/11/08 01:56:52;;;;;;;8.90;4.45;;;14.60;75.40;;;;;;7409742;19;20011;-85
2022/11/08 01:59:25;;;;;;;13.50;4.72;;;14.60;75.60;;;;;;7403553;19;20117;-84
2022/11/08 02:01:54;;;;;;;11.38;4.68;;;14.60;75.70;;;;;;7406028;19;20022;-84
2022/11/08 02:04:23;;;;;;;10.25;4.10;;;14.60;75.70;;;;;;7403948;19;20380;-84
2022/11/08 02:06:52;;;;;;;14.93;3.95;;;14.60;76.60;;;;;;7403482;19;20457;-84
2022/11/08 02:09:21;;;;;;;14.23;4.28;;;14.60;75.80;;;;;;7403175;19;20015;-85
2022/11/08 02:11:51;;;;;;;10.32;4.03;;;14.70;75.80;;;;;;7402665;19;20032;-84
2022/11/08 02:14:23;;;;;;;12.88;4.35;;;14.70;75.70;;;;;;7404008;19;20445;-84
2022/11/08 02:16:51;;;;;;;8.80;4.13;;;14.60;75.50;;;;;;7401132;19;20576;-84
2022/11/08 02:19:31;;;;;;;9.60;3.80;;;14.60;75.60;;;;;;7402197;19;20674;-85
2022/11/08 02:22:03;;;;;;;9.32;3.83;;;14.60;75.60;;;;;;7403261;19;20082;-84
2022/11/08 02:24:35;;;;;;;13.35;3.78;;;14.60;75.40;;;;;;7401943;19;20034;-84
2022/11/08 02:27:04;;;;;;;9.23;3.92;;;14.60;75.70;;;;;;7404143;19;20031;-84
2022/11/08 02:29:34;;;;;;;11.48;4.10;;;14.60;75.80;;;;;;7408993;19;20042;-83
2022/11/08 02:32:05;;;;;;;8.77;4.00;;;14.60;75.70;;;;;;7408138;19;20045;-84
2022/11/08 02:34:38;;;;;;;23.00;3.70;;;14.60;75.60;;;;;;7401057;19;20014;-82
2022/11/08 02:37:08;;;;;;;8.35;3.80;;;14.60;75.60;;;;;;7406240;19;20475;-83
2022/11/08 02:39:39;;;;;;;9.15;3.60;;;14.60;76.30;;;;;;7407175;19;20007;-83
2022/11/08 02:42:08;;;;;;;;;;;14.60;75.50;;;;;;7412097;19;20006;-83
2022/11/08 02:44:36;;;;;;;7.45;3.90;;;14.60;75.40;;;;;;7407911;19;20567;-83
2022/11/08 02:47:05;;;;;;;9.05;3.50;;;14.50;75.10;;;;;;7410164;19;20094;-83
2022/11/08 02:49:34;;;;;;;10.52;4.03;;;14.50;75.10;;;;;;7405189;19;20026;-84
2022/11/08 02:52:03;;;;;;;15.23;3.63;;;14.50;75.10;;;;;;7408687;19;20031;-84
2022/11/08 02:54:31;;;;;;;5.78;3.20;;;14.50;75.20;;;;;;7409245;19;20449;-83
2022/11/08 02:57:03;;;;;;;10.20;4.03;;;14.40;75.10;;;;;;7406052;19;20089;-83
2022/11/08 02:59:31;;;;;;;12.88;3.92;;;14.40;75.20;;;;;;7405086;19;20022;-83
2022/11/08 03:02:00;;;;;;;10.73;3.63;;;14.40;75.00;;;;;;7409950;19;20485;-83
2022/11/08 03:04:29;;;;;;;7.75;3.50;;;14.40;75.00;;;;;;7407811;19;20022;-83
2022/11/08 03:06:58;;;;;;;6.72;3.75;;;14.40;75.10;;;;;;7408657;19;20022;-83
2022/11/08 03:09:27;;;;;;;9.85;3.40;;;14.40;75.10;;;;;;7409449;19;20030;-84
2022/11/08 03:11:56;;;;;;;11.00;3.60;;;14.40;75.10;;;;;;7410088;19;20042;-84
2022/11/08 03:14:28;;;;;;;11.90;3.47;;;14.40;75.00;;;;;;7409527;19;20014;-84
2022/11/08 03:16:56;;;;;;;;;;;14.40;75.00;;;;;;7409607;19;20018;-83
2022/11/08 03:19:25;;;;;;;9.25;3.25;;;14.50;75.00;;;;;;7417167;19;19929;-84
2022/11/08 03:21:54;;;;;;;6.55;2.90;;;14.50;74.60;;;;;;7415792;19;20319;-83
2022/11/08 03:24:22;;;;;;;10.40;3.17;;;14.40;74.40;;;;;;7414021;19;20018;-83
2022/11/08 03:26:51;;;;;;;6.78;2.90;;;14.40;74.40;;;;;;7410278;19;20110;-83
2022/11/08 03:29:20;;;;;;;7.40;2.97;;;14.40;74.10;;;;;;7409729;19;20023;-83
2022/11/08 03:31:51;;;;;;;6.07;2.83;;;14.40;73.80;;;;;;7410771;19;20105;-83
2022/11/08 03:34:20;;;;;;;6.60;2.53;;;14.50;73.70;;;;;;7412581;19;20018;-83
2022/11/08 03:36:48;;;;;;;8.38;2.60;;;14.50;73.50;;;;;;7414159;19;20030;-83
2022/11/08 03:39:17;;;;;;;6.60;2.33;;;14.50;73.30;;;;;;7413331;19;20018;-83
2022/11/08 03:41:46;;;;;;;7.53;2.30;;;14.50;72.80;;;;;;7412515;19;20039;-82
2022/11/08 03:44:15;;;;;;;6.45;2.28;;;14.50;72.50;;;;;;7410589;19;20028;-83
2022/11/08 03:46:44;;;;;;;6.90;2.30;;;14.60;72.50;;;;;;7411272;19;20039;-83
2022/11/08 03:49:15;;;;;;;7.50;2.22;;;14.60;72.10;;;;;;7410001;19;20014;-82
2022/11/08 03:51:44;;;;;;;7.70;2.33;;;14.60;71.80;;;;;;7415248;19;20306;-83
2022/11/08 03:54:13;;;;;;;5.38;2.47;;;14.60;71.90;;;;;;7413738;19;20344;-82
2022/11/08 03:56:41;;;;;;;4.85;2.58;;;14.60;71.80;;;;;;7412024;19;20014;-82
2022/11/08 03:59:12;;;;;;;6.22;2.80;;;14.60;71.60;;;;;;7412031;19;20028;-84
2022/11/08 04:01:41;;;;;;;6.18;2.80;;;14.70;71.60;;;;;;7409780;19;20017;-84
2022/11/08 04:04:10;;;;;;;4.70;2.17;;;14.70;71.60;;;;;;7411765;19;20027;-83
2022/11/08 04:06:41;;;;;;;8.10;2.15;;;14.70;71.70;;;;;;7411891;19;20031;-84
2022/11/08 04:09:10;;;;;;;4.38;2.15;;;14.60;71.50;;;;;;7412304;19;20030;-84
2022/11/08 04:17:00;;;;;;;4.80;2.10;;;14.60;71.30;;;;;;7415902;19;20030;-84
2022/11/08 04:22:18;;;;;;;7.22;2.40;;;14.70;71.10;;;;;;7401924;19;20014;-84
2022/11/08 04:24:47;;;;;;;6.38;2.42;;;14.70;71.00;;;;;;7402448;19;20391;-84
2022/11/08 04:27:16;;;;;;;6.32;2.42;;;14.70;71.20;;;;;;7402031;19;20524;-84
2022/11/08 04:29:45;;;;;;;8.20;2.40;;;14.70;71.00;;;;;;7402999;19;20110;-85
2022/11/08 04:32:14;;;;;;;6.18;2.40;;;14.70;71.10;;;;;;7401610;19;20337;-84
2022/11/08 04:34:42;;;;;;;7.63;2.33;;;14.70;71.20;;;;;;7403423;19;20089;-84
2022/11/08 04:37:11;;;;;;;7.93;2.63;;;14.70;71.10;;;;;;7406735;19;20018;-84
2022/11/08 04:39:43;;;;;;;5.97;2.45;;;14.70;70.90;;;;;;7405146;19;20044;-85
2022/11/08 04:42:12;;;;;;;3.65;2.22;;;14.70;70.90;;;;;;7410098;19;20018;-85
2022/11/08 04:44:41;;;;;;;4.47;2.38;;;14.70;70.80;;;;;;7410702;19;20011;-85
2022/11/08 04:47:10;;;;;;;5.90;2.40;;;14.70;70.90;;;;;;7414353;19;20018;-84
2022/11/08 04:49:39;;;;;;;10.07;2.72;;;14.60;70.80;;;;;;7413149;19;20038;-84
2022/11/08 04:52:08;;;;;;;7.82;3.00;;;14.70;70.80;;;;;;7422403;19;20011;-85
2022/11/08 04:54:39;;;;;;;9.05;2.53;;;14.70;70.90;;;;;;7421629;19;20018;-86
2022/11/08 04:57:10;;;;;;;6.22;2.72;;;14.70;70.90;;;;;;7418109;19;20031;-85
2022/11/08 04:59:39;;;;;;;7.60;2.83;;;14.60;70.80;;;;;;7414925;19;20019;-86
2022/11/08 05:02:08;;;;;;;5.05;2.38;;;14.70;70.90;;;;;;7415761;19;20017;-85
2022/11/08 05:04:37;;;;;;;5.97;2.45;;;14.70;70.80;;;;;;7415703;19;20010;-85
2022/11/08 05:07:09;;;;;;;7.35;2.60;;;14.60;70.60;;;;;;7416417;19;20018;-85
2022/11/08 05:09:38;;;;;;;7.05;2.63;;;14.60;70.60;;;;;;7415809;19;20041;-84
2022/11/08 05:12:12;;;;;;;10.30;2.83;;;14.60;70.80;;;;;;7412334;19;20008;-86
2022/11/08 05:14:41;;;;;;;5.88;2.72;;;14.60;70.70;;;;;;7409535;19;20023;-84
2022/11/08 05:17:12;;;;;;;8.02;3.30;;;14.60;70.70;;;;;;7409474;19;20028;-84
2022/11/08 05:25:04;;;;;;;6.38;2.55;;;14.60;70.60;;;;;;7412404;19;20021;-84
2022/11/08 05:27:36;;;;;;;8.18;2.42;;;14.60;70.60;;;;;;7411674;19;20031;-84
2022/11/08 05:30:07;;;;;;;5.75;2.40;;;14.60;70.60;;;;;;7411854;19;20027;-84
2022/11/08 05:32:40;;;;;;;6.28;2.40;;;14.60;70.70;;;;;;7409058;19;20025;-84
2022/11/08 05:35:11;;;;;;;3.88;2.03;;;14.60;70.60;;;;;;7411096;19;20014;-85
2022/11/08 05:37:43;;;;;;;5.15;1.95;;;14.60;70.60;;;;;;7411880;19;20027;-85
2022/11/08 05:40:13;;;;;;;8.05;2.70;;;14.60;70.60;;;;;;7412277;19;20014;-85
2022/11/08 05:42:44;;;;;;;4.75;2.30;;;14.60;70.60;;;;;;7419343;19;20022;-84
2022/11/08 05:45:13;;;;;;;6.75;2.78;;;14.60;70.60;;;;;;7413098;19;20090;-84
2022/11/08 05:47:49;;;;;;;7.72;2.53;;;14.60;70.70;;;;;;7411540;19;20010;-85
2022/11/08 05:50:18;;;;;;;10.00;2.50;;;14.60;70.60;;;;;;7416032;19;20026;-86
2022/11/08 05:52:47;;;;;;;4.82;2.08;;;14.60;70.70;;;;;;7411561;19;20011;-85
2022/11/08 05:55:17;;;;;;;8.40;2.60;;;14.50;70.70;;;;;;7419906;19;20042;-85
2022/11/08 05:57:48;;;;;;;4.50;2.25;;;14.50;70.70;;;;;;7416534;19;20014;-86
2022/11/08 06:00:19;;;;;;;6.25;2.30;;;14.50;70.80;;;;;;7415846;19;20019;-85
2022/11/08 06:02:48;;;;;;;6.78;2.25;;;14.50;71.30;;;;;;7412467;19;20031;-85
2022/11/08 06:05:20;;;;;;;10.48;2.53;;;14.50;71.50;;;;;;7410496;19;20030;-84
2022/11/08 06:07:49;;;;;;;4.25;2.40;;;14.50;71.40;;;;;;7411068;19;20007;-86
2022/11/08 06:10:18;;;;;;;4.25;2.60;;;14.50;71.50;;;;;;7414073;19;20011;-86
2022/11/08 06:12:50;;;;;;;8.25;2.67;;;14.50;71.20;;;;;;7412859;19;20015;-85
2022/11/08 06:15:21;;;;;;;5.45;2.60;;;14.50;71.50;;;;;;7410787;19;20014;-85
2022/11/08 06:17:50;;;;;;;2.95;1.80;;;14.50;71.40;;;;;;7409829;19;20021;-84
2022/11/08 06:20:21;;;;;;;8.75;2.50;;;14.50;71.40;;;;;;7412807;19;20130;-83
2022/11/08 06:22:50;;;;;;;5.13;2.85;;;14.50;71.30;;;;;;7411026;19;20042;-84
2022/11/08 06:25:19;;;;;;;7.63;2.40;;;14.50;71.30;;;;;;7404190;19;20488;-84
2022/11/08 06:27:51;;;;;;;4.15;2.28;;;14.50;71.20;;;;;;7405640;19;20019;-84
2022/11/08 06:30:19;;;;;;;;;;;14.50;71.30;;;;;;7407229;19;20312;-85
2022/11/08 06:32:50;;;;;;;5.25;2.25;;;14.60;71.50;;;;;;7408956;19;19945;-84
2022/11/08 06:35:20;;;;;;;10.98;2.42;;;14.50;71.10;;;;;;7405812;19;20014;-85
2022/11/08 06:37:49;;;;;;;6.13;2.10;;;14.50;71.10;;;;;;7402390;19;20031;-85
2022/11/08 06:40:18;;;;;;;7.80;3.13;;;14.50;71.90;;;;;;7401580;19;20062;-85
2022/11/08 06:42:52;;;;;;;4.43;2.40;;;14.50;70.90;;;;;;7403362;19;20018;-84
2022/11/08 06:45:21;;;;;;;4.57;2.08;;;14.50;70.80;;;;;;7399391;19;20018;-84
2022/11/08 06:47:49;;;;;;;5.32;2.50;;;14.50;70.90;;;;;;7402184;19;20076;-85
2022/11/08 06:50:18;;;;;;;4.13;2.20;;;14.50;70.90;;;;;;7403486;19;20022;-84
2022/11/08 06:52:47;;;;;;;6.30;2.72;;;14.50;70.70;;;;;;7401627;19;20018;-84
2022/11/08 06:55:19;;;;;;;8.90;2.13;;;14.50;70.90;;;;;;7401485;19;20102;-84
2022/11/08 06:57:48;;;;;;;5.82;2.40;;;14.50;71.10;;;;;;7399411;19;20077;-83
2022/11/08 07:00:20;;;;;;;10.63;2.47;;;14.50;71.30;;;;;;7396843;19;20014;-85
2022/11/08 07:02:54;;;;;;;3.58;2.22;;;14.50;71.30;;;;;;7397934;19;20080;-84
2022/11/08 07:05:23;;;;;;;14.18;2.22;;;14.50;71.10;;;;;;7399412;19;20010;-85
2022/11/08 07:07:53;;;;;;;4.60;2.25;;;14.50;71.10;;;;;;7399708;19;20014;-85
2022/11/08 07:10:23;;;;;;;5.10;2.22;;;14.50;71.20;;;;;;7405643;19;20014;-85
2022/11/08 07:13:00;;;;;;;4.53;2.25;;;14.60;71.10;;;;;;7411221;19;20022;-85
2022/11/08 07:15:32;;;;;;;3.88;2.38;;;14.50;71.00;;;;;;7401870;19;20036;-84
2022/11/08 07:18:02;;;;;;;4.97;2.72;;;14.60;71.10;;;;;;7398420;19;20086;-85
2022/11/08 07:20:31;;;;;;;3.70;2.30;;;14.60;71.10;;;;;;7399622;19;20527;-85
2022/11/08 07:23:03;;;;;;;5.63;2.60;;;14.60;71.20;;;;;;7409669;19;20026;-85
2022/11/08 07:25:33;;;;;;;5.68;2.42;;;14.60;71.20;;;;;;7409360;19;20594;-85
2022/11/08 07:28:09;;;;;;;3.72;2.20;;;14.60;71.20;;;;;;7410765;19;20093;-84
2022/11/08 07:30:40;;;;;;;6.18;2.65;;;14.60;71.20;;;;;;7412258;19;20023;-85
2022/11/08 07:33:09;;;;;;;5.57;2.00;;;14.70;71.30;;;;;;7413831;19;20015;-85
2022/11/08 07:35:38;;;;;;;7.85;2.90;;;14.60;71.10;;;;;;7415458;19;20010;-85
2022/11/08 07:38:10;;;;;;;10.80;2.92;;;14.60;71.10;;;;;;7409451;19;20066;-85
2022/11/08 07:40:39;;;;;;;4.95;2.60;;;14.60;71.40;;;;;;7409368;19;20029;-85
2022/11/08 07:43:08;;;;;;;4.68;2.50;;;14.70;71.60;;;;;;7408302;19;20007;-85
2022/11/08 07:45:40;;;;;;;7.40;2.83;;;14.80;72.70;;;;;;7410182;19;20034;-85
2022/11/08 07:48:14;;;;;;;5.45;2.15;;;14.80;71.80;;;;;;7419592;19;20020;-86
2022/11/08 07:50:44;;;;;;;7.90;2.72;;;14.80;71.50;;;;;;7415650;19;20007;-85
2022/11/08 07:53:13;;;;;;;5.57;2.65;;;14.90;71.40;;;;;;7413006;19;20026;-85
2022/11/08 07:55:42;;;;;;;5.07;2.45;;;14.90;71.50;;;;;;7407337;19;20018;-85
2022/11/08 07:58:14;;;;;;;7.00;2.67;;;15.00;71.60;;;;;;7409672;19;20006;-89
2022/11/08 08:00:48;;;;;;;5.70;2.47;;;15.00;71.40;;;;;;7416504;19;20049;-91
2022/11/08 08:03:18;;;;;;;4.85;2.42;;;15.00;71.40;;;;;;7415581;19;20053;-84
2022/11/08 08:05:52;;;;;;;31.35;14.02;;;15.00;71.60;;;;;;7409276;19;20393;-90
2022/11/08 08:10:50;;;;;;;13.43;4.05;;;15.10;71.70;;;;;;7412970;19;20014;-86
2022/11/08 08:13:19;;;;;;;7.32;3.08;;;15.10;71.70;;;;;;7415371;19;20022;-85
2022/11/08 08:15:51;;;;;;;7.93;4.25;;;15.20;71.60;;;;;;7411704;19;20007;-89
2022/11/08 08:18:20;;;;;;;12.80;2.50;;;15.20;71.70;;;;;;7388630;19;20193;-89
2022/11/08 08:20:49;;;;;;;8.00;2.28;;;15.20;71.70;;;;;;7413142;19;20018;-91
2022/11/08 08:23:18;;;;;;;9.10;2.47;;;15.30;71.80;;;;;;7417530;19;20074;-90
2022/11/08 08:25:46;;;;;;;6.30;2.05;;;15.40;71.50;;;;;;7403238;19;20022;-87
2022/11/08 08:30:53;;;;;;;5.90;2.08;;;15.40;71.40;;;;;;7380734;19;20006;-91
2022/11/08 08:35:55;;;;;;;7.45;2.13;;;15.50;71.90;;;;;;7410124;19;20067;-89
2022/11/08 08:38:24;;;;;;;5.45;1.98;;;15.50;71.90;;;;;;7407968;19;20018;-91
2022/11/08 08:40:53;;;;;;;8.23;2.10;;;15.60;72.30;;;;;;7412612;19;20010;-85
2022/11/08 08:43:22;;;;;;;4.97;2.00;;;15.70;71.50;;;;;;7419013;19;20025;-90
2022/11/08 08:45:53;;;;;;;6.28;2.00;;;15.80;71.40;;;;;;7416669;19;20006;-90
2022/11/08 08:48:22;;;;;;;4.68;2.00;;;15.80;71.30;;;;;;7421722;19;20015;-89
2022/11/08 08:50:51;;;;;;;11.93;2.15;;;15.90;71.20;;;;;;7415890;19;20010;-85
2022/11/08 08:53:20;;;;;;;6.95;2.38;;;15.90;70.90;;;;;;7415127;19;20042;-88
2022/11/08 08:55:51;;;;;;;3.95;2.10;;;15.90;71.00;;;;;;7414631;19;20015;-86
2022/11/08 08:58:31;;;;;;;6.90;2.17;;;15.90;71.00;;;;;;7411847;19;20023;-89
2022/11/08 09:01:11;;;;;;;8.57;2.15;;;16.00;71.10;;;;;;7422300;19;20010;-91
2022/11/08 09:03:40;;;;;;;5.43;1.85;;;15.90;71.00;;;;;;7414192;19;20018;-88
2022/11/08 09:08:41;;;;;;;5.45;2.13;;;16.20;70.90;;;;;;7408322;19;20679;-88
2022/11/08 09:11:11;;;;;;;5.97;2.03;;;16.10;70.90;;;;;;7414430;19;20025;-88
2022/11/08 09:13:40;;;;;;;3.95;2.00;;;15.90;70.90;;;;;;7416704;19;20022;-90
2022/11/08 09:16:16;;;;;;;14.00;1.98;;;15.90;71.30;;;;;;7415408;19;20026;-87
2022/11/08 09:18:48;;;;;;;4.15;1.90;;;16.10;71.20;;;;;;7415265;19;20457;-88
2022/11/08 09:21:19;;;;;;;4.45;2.22;;;16.20;71.10;;;;;;7417606;19;20040;-92
2022/11/08 09:26:24;;;;;;;7.32;1.98;;;16.40;70.50;;;;;;7388164;19;20014;-90
2022/11/08 09:28:55;;;;;;;9.40;1.80;;;16.50;70.80;;;;;;7417686;19;20010;-89
2022/11/08 09:31:27;;;;;;;6.68;2.58;;;16.60;70.60;;;;;;7418427;19;20010;-92
2022/11/08 09:33:56;;;;;;;8.32;2.10;;;16.60;70.10;;;;;;7412939;19;20021;-87
2022/11/08 09:36:28;;;;;;;5.82;1.90;;;16.70;70.20;;;;;;7415311;19;20035;-91
2022/11/08 09:38:57;;;;;;;9.68;2.10;;;16.60;70.10;;;;;;7424695;19;20015;-92
2022/11/08 09:44:27;;;;;;;3.45;1.70;;;16.50;70.40;;;;;;7424172;19;20006;-85
2022/11/08 09:47:03;;;;;;;6.10;2.13;;;16.60;70.20;;;;;;7431251;19;20002;-88
2022/11/08 09:49:41;;;;;;;7.38;1.98;;;16.60;70.20;;;;;;7424375;19;20010;-93
2022/11/08 09:52:17;;;;;;;8.75;2.00;;;16.60;70.20;;;;;;7428493;19;20011;-87
2022/11/08 09:54:49;;;;;;;5.78;1.90;;;16.70;70.50;;;;;;7419359;19;20014;-88
2022/11/08 09:57:24;;;;;;;7.95;2.17;;;16.70;70.50;;;;;;7410810;19;20027;-90
2022/11/08 09:59:58;;;;;;;5.28;1.88;;;16.70;70.50;;;;;;7416418;19;20025;-87
2022/11/08 10:02:31;;;;;;;7.32;2.17;;;16.80;70.40;;;;;;7423440;19;20023;-91
2022/11/08 10:05:04;;;;;;;6.30;1.80;;;16.80;70.10;;;;;;7370544;19;20003;-91
2022/11/08 10:07:42;;;;;;;5.10;2.08;;;16.80;70.60;;;;;;7420000;19;20034;-90
2022/11/08 10:12:58;;;;;;;7.68;2.20;;;16.70;70.90;;;;;;7382265;19;20022;-87
2022/11/08 10:15:35;;;;;;;4.05;1.77;;;16.80;70.80;;;;;;7378690;19;20030;-88
2022/11/08 10:18:50;;;;;;;7.25;2.10;;;16.80;71.10;;;;;;7414891;19;20014;-90
2022/11/08 10:21:35;;;;;;;8.10;1.88;;;16.60;71.40;;;;;;7394313;19;20028;-92
2022/11/08 10:24:10;;;;;;;5.65;1.98;;;16.70;71.90;;;;;;7418965;19;20025;-90
2022/11/08 10:26:44;;;;;;;7.53;2.00;;;16.70;72.20;;;;;;7412982;19;20028;-88
2022/11/08 10:29:19;;;;;;;4.00;1.88;;;16.80;72.00;;;;;;7421621;19;20014;-89
2022/11/08 10:31:58;;;;;;;5.25;1.92;;;16.90;71.90;;;;;;7419673;19;20014;-92
2022/11/08 10:34:36;;;;;;;5.68;2.08;;;17.00;71.70;;;;;;7355216;19;20160;-91
2022/11/08 10:37:08;;;;;;;6.57;2.15;;;17.00;71.70;;;;;;7407722;19;20010;-87
2022/11/08 10:39:41;;;;;;;5.28;1.90;;;17.10;71.40;;;;;;7410888;19;20014;-91
2022/11/08 10:42:15;;;;;;;5.85;2.20;;;17.10;71.40;;;;;;7411722;19;20010;-90
2022/11/08 10:44:44;;;;;;;4.88;2.20;;;17.00;72.20;;;;;;7414946;19;20007;-89
2022/11/08 10:47:25;;;;;;;9.93;2.40;;;17.10;72.60;;;;;;7410885;19;20019;-90
2022/11/08 10:49:57;;;;;;;8.23;1.77;;;17.10;72.20;;;;;;7410731;19;20021;-88
2022/11/08 10:52:34;;;;;;;6.88;2.10;;;17.10;71.90;;;;;;7413521;19;20016;-88
2022/11/08 10:55:04;;;;;;;7.28;2.50;;;17.20;72.00;;;;;;7405858;19;20032;-87
2022/11/08 10:57:47;;;;;;;8.85;2.35;;;17.30;71.90;;;;;;7413992;19;20018;-84
2022/11/08 11:00:28;;;;;;;13.35;2.25;;;17.00;72.50;;;;;;7400042;19;20015;-88
2022/11/08 11:03:00;;;;;;;4.57;1.92;;;17.20;72.50;;;;;;7411834;19;20623;-90
2022/11/08 11:05:38;;;;;;;5.35;2.20;;;17.40;72.10;;;;;;7412018;19;20015;-86
2022/11/08 11:08:20;;;;;;;10.25;3.00;;;17.50;71.90;;;;;;7411094;19;20018;-90
2022/11/08 11:10:50;;;;;;;10.55;2.05;;;17.60;72.00;;;;;;7410921;19;20033;-93
2022/11/08 11:13:25;;;;;;;6.35;1.90;;;17.50;72.10;;;;;;7416824;19;20018;-87
2022/11/08 11:16:01;;;;;;;12.55;2.45;;;17.60;71.90;;;;;;7409418;19;20027;-90
2022/11/08 11:18:33;;;;;;;7.78;1.92;;;17.70;71.80;;;;;;7405335;19;20018;-93
2022/11/08 11:21:10;;;;;;;9.30;2.28;;;17.60;72.30;;;;;;7416401;19;20011;-89
2022/11/08 11:23:43;;;;;;;10.00;2.20;;;17.70;72.40;;;;;;7412093;19;20028;-91
2022/11/08 11:26:22;;;;;;;8.32;2.25;;;17.50;72.60;;;;;;7411570;19;20525;-92
2022/11/08 11:29:22;;;;;;;9.30;2.50;;;17.60;72.70;;;;;;7419326;19;20051;-82
2022/11/08 11:31:53;;;;;;;15.38;2.22;;;17.60;72.40;;;;;;7423768;19;20115;-82
2022/11/08 11:34:45;;;;;;;9.68;2.80;;;17.50;73.30;;;;;;7419401;19;20027;-80
2022/11/08 11:37:34;;;;;;;2.17;1.65;;;17.50;73.20;;;;;;7415597;19;20014;-83
2022/11/08 11:40:13;;;;;;;9.77;2.38;;;17.60;73.00;;;;;;7408077;19;20015;-81
2022/11/08 11:42:48;;;;;;;11.27;2.30;;;17.80;72.60;;;;;;7414187;19;20031;-87
2022/11/08 11:45:28;;;;;;;4.57;2.38;;;17.90;72.70;;;;;;7418465;19;20018;-84
2022/11/08 11:48:03;;;;;;;6.15;2.30;;;17.70;73.30;;;;;;7419050;19;20017;-84
2022/11/08 11:50:37;;;;;;;10.75;2.83;;;17.80;72.90;;;;;;7334689;19;20054;-89
2022/11/08 11:53:17;;;;;;;8.13;2.90;;;17.80;72.90;;;;;;7419044;19;20361;-88
2022/11/08 11:56:04;;;;;;;8.32;2.67;;;17.90;72.80;;;;;;7417214;19;20014;-88
2022/11/08 11:58:56;;;;;;;12.38;3.35;;;18.00;72.60;;;;;;7416056;19;20011;-89
2022/11/08 12:01:43;;;;;;;6.72;3.03;;;18.00;72.70;;;;;;7416757;19;20011;-85
2022/11/08 12:04:29;;;;;;;7.72;2.70;;;18.00;72.20;;;;;;7408753;19;20034;-87
2022/11/08 12:07:05;;;;;;;16.73;2.65;;;17.90;72.70;;;;;;7410598;19;20323;-87
2022/11/08 12:09:59;;;;;;;6.50;2.80;;;18.00;72.50;;;;;;7407788;19;20035;-86
2022/11/08 12:12:43;;;;;;;9.82;2.83;;;18.00;72.70;;;;;;7406394;19;20314;-83
2022/11/08 12:15:23;;;;;;;10.02;2.25;;;18.10;72.60;;;;;;7412056;19;20029;-81
2022/11/08 12:18:20;;;;;;;12.77;2.90;;;18.00;72.70;;;;;;7407008;19;20388;-86
2022/11/08 12:21:00;;;;;;;18.65;2.92;;;17.80;72.70;;;;;;7407717;19;20062;-84
2022/11/08 12:23:54;;;;;;;7.50;2.60;;;17.90;73.40;;;;;;7416709;19;20470;-87
2022/11/08 12:26:32;;;;;;;8.05;3.05;;;18.10;73.20;;;;;;7415813;19;20019;-87
2022/11/08 12:29:30;;;;;;;6.38;2.92;;;18.20;72.90;;;;;;7412646;19;20028;-88
2022/11/08 12:32:20;;;;;;;10.02;2.75;;;18.00;73.30;;;;;;7417311;19;20010;-90
2022/11/08 12:35:07;;;;;;;10.93;2.40;;;18.00;73.50;;;;;;7409817;19;20015;-90
2022/11/08 12:37:52;;;;;;;7.03;2.50;;;18.10;73.30;;;;;;7407838;19;20074;-88
2022/11/08 12:40:26;;;;;;;10.13;2.47;;;18.20;73.00;;;;;;7407644;19;20019;-87
2022/11/08 12:43:16;;;;;;;7.97;2.60;;;18.30;72.60;;;;;;7406834;19;20019;-84
2022/11/08 12:46:07;;;;;;;12.77;2.65;;;18.40;72.70;;;;;;7411972;19;20721;-85
2022/11/08 12:48:54;;;;;;;10.40;2.13;;;18.50;72.80;;;;;;7406615;19;20023;-82
2022/11/08 12:51:29;;;;;;;6.82;2.20;;;18.40;72.80;;;;;;7407090;19;20035;-83
2022/11/08 12:54:19;;;;;;;9.60;2.72;;;18.10;73.30;;;;;;7418584;19;20019;-80
2022/11/08 12:56:49;;;;;;;9.68;2.20;;;18.10;73.40;;;;;;7412520;19;20015;-81
2022/11/08 12:59:24;;;;;;;11.70;2.33;;;18.30;73.00;;;;;;7414113;19;20010;-83
2022/11/08 13:01:55;;;;;;;13.00;2.35;;;18.20;73.00;;;;;;7412021;19;20031;-80
2022/11/08 13:04:40;;;;;;;5.60;2.10;;;18.20;73.30;;;;;;7406794;19;20093;-82
2022/11/08 13:09:45;;;;;;;9.55;2.10;;;17.80;73.60;;;;;;7412264;19;20426;-88
2022/11/08 13:12:30;;;;;;;7.10;2.30;;;18.10;73.30;;;;;;7416477;19;20010;-88
2022/11/08 13:15:05;;;;;;;6.15;2.42;;;18.10;73.20;;;;;;7414370;19;20007;-89
2022/11/08 13:17:33;;;;;;;7.40;2.20;;;18.30;72.80;;;;;;7409378;19;20035;-90
2022/11/08 13:20:06;;;;;;;6.70;2.17;;;18.30;72.50;;;;;;7405868;19;20014;-84
2022/11/08 13:22:59;;;;;;;9.98;2.35;;;18.40;72.20;;;;;;7409148;19;20026;-85
2022/11/08 13:25:44;;;;;;;9.73;2.35;;;18.40;72.30;;;;;;7406880;19;20010;-84
2022/11/08 13:28:41;;;;;;;5.43;2.30;;;18.30;72.40;;;;;;7407751;19;20035;-84
2022/11/08 13:31:50;;;;;;;5.68;2.10;;;18.40;72.30;;;;;;7405637;19;20482;-85
2022/11/08 13:34:39;;;;;;;7.38;2.30;;;18.50;72.20;;;;;;7405035;19;20039;-81
2022/11/08 13:37:38;;;;;;;6.53;1.95;;;18.60;72.00;;;;;;7407960;19;20106;-89
2022/11/08 13:40:24;;;;;;;5.95;1.98;;;18.60;71.80;;;;;;7409359;19;20034;-81
2022/11/08 13:43:22;;;;;;;12.98;2.45;;;18.80;71.60;;;;;;7403899;19;20026;-82
2022/11/08 13:45:53;;;;;;;9.05;2.00;;;18.70;71.40;;;;;;7406719;19;20019;-85
2022/11/08 13:49:04;;;;;;;5.30;2.05;;;18.80;71.30;;;;;;7403564;19;20014;-81
2022/11/08 13:51:34;;;;;;;6.20;2.60;;;18.60;72.30;;;;;;7407182;19;20069;-85
2022/11/08 13:54:05;;;;;;;11.82;2.22;;;18.80;71.20;;;;;;7404942;19;20078;-87
2022/11/08 13:56:46;;;;;;;7.13;2.28;;;18.80;70.90;;;;;;7406228;19;20018;-81
2022/11/08 13:59:51;;;;;;;6.07;2.50;;;18.90;70.90;;;;;;7409596;19;20026;-81
2022/11/08 14:02:39;;;;;;;12.38;2.00;;;18.90;70.30;;;;;;7407646;19;20014;-84
2022/11/08 14:05:26;;;;;;;6.28;2.20;;;18.90;70.90;;;;;;7405148;19;20014;-83